Rickmers New Orleans — V7FF2 — position and weather

sailwx.info

Track history (hours):
 
Tides and Currents Weather Stations Pressure Air Temp Water Temp Dewpoint Dewpoint Depression Visibility Wind Speed Wind Dir Waves Ship Positions

Rickmers New Orleans

Last reported at 2016-Dec-23 17:17 UTC. Time now 2017-Mar-28 13:58 UTC.
Position N 39°59' W 075°05'.
Warning: this ship's position is months out of date.

Length 192.9 m; beam 27.8 m; draft 11.2 m.

Type: Cargo ship. MMSI: 538001922.

Date/timePositionNaut miles runAvg speedWind from/ knotsBaromVisibWave heightAir tempDewpointWater temp
2016-Dec-23 17:17N 39°59' W 075°05'0 0.0
2016-Dec-23 16:32N 39°59' W 075°05'0 0.0
2016-Dec-23 15:32N 39°59' W 075°05'0 0.0
2016-Dec-23 14:32N 39°59' W 075°05'0 0.0
2016-Dec-23 13:32N 39°59' W 075°05'0 0.0
2016-Dec-23 12:32N 39°59' W 075°05'0 0.0
2016-Dec-23 11:32N 39°59' W 075°05'0 0.0
2016-Dec-23 10:32N 39°59' W 075°05'2 1.9
2016-Dec-23 09:33N 39°58' W 075°07'7 6.7
2016-Dec-23 08:33N 39°52' W 075°12'9 8.9
2016-Dec-23 07:33N 39°49' W 075°23'10 9.5
2016-Dec-23 06:33N 39°42' W 075°31'10 9.9
2016-Dec-23 05:33N 39°32' W 075°33'1010.5
2016-Dec-23 04:33N 39°22' W 075°28'1212.2
2016-Dec-23 03:33N 39°13' W 075°18'1212.5
2016-Dec-23 02:33N 39°02' W 075°10'45911.7
2016-Dec-21 11:22N 32°13' W 079°26'1813.6
2016-Dec-21 10:03N 32°03' W 079°44'713.9
2016-Dec-21 09:34N 31°59' W 079°50'2612.4
2016-Dec-21 07:27N 31°55' W 080°21'1310.1
2016-Dec-21 06:11N 31°56' W 080°36'6 9.9
2016-Dec-21 05:34N 31°57' W 080°43'1010.1
2016-Dec-21 04:34N 32°02' W 080°53'8 8.2
2016-Dec-21 03:33N 32°05' W 081°02'2 1.6
2016-Dec-21 02:31N 32°05' W 081°04'0 0.0
2016-Dec-21 01:31N 32°05' W 081°04'0 0.0
2016-Dec-21 00:25N 32°05' W 081°04'0 0.0
2016-Dec-20 23:31N 32°05' W 081°04'0 0.0
2016-Dec-20 22:31N 32°05' W 081°04'0 0.0
2016-Dec-20 21:19N 32°05' W 081°04'0 0.0
2016-Dec-20 20:31N 32°05' W 081°04'0 0.0
2016-Dec-20 19:31N 32°05' W 081°04'0 0.0
2016-Dec-20 18:31N 32°05' W 081°04'0 0.0
2016-Dec-20 17:31N 32°05' W 081°04'0 0.0
2016-Dec-20 16:19N 32°05' W 081°04'0 0.0
2016-Dec-20 15:31N 32°05' W 081°04'0 0.0
2016-Dec-20 14:31N 32°05' W 081°04'0 0.0
2016-Dec-20 13:31N 32°05' W 081°04'0 0.0
2016-Dec-20 12:31N 32°05' W 081°04'0 0.0
2016-Dec-20 11:31N 32°05' W 081°04'0 0.0
2016-Dec-20 10:31N 32°05' W 081°04'0 0.0
2016-Dec-20 09:31N 32°05' W 081°04'0 0.0
2016-Dec-20 08:31N 32°05' W 081°04'0 0.0
2016-Dec-20 07:31N 32°05' W 081°04'0 0.0
2016-Dec-20 06:31N 32°05' W 081°04'0 0.0
2016-Dec-20 05:31N 32°05' W 081°04'0 0.0
2016-Dec-20 04:31N 32°05' W 081°04'0 0.0
2016-Dec-20 03:25N 32°05' W 081°04'0 0.0
2016-Dec-20 02:31N 32°05' W 081°04'0 0.0
2016-Dec-20 01:31N 32°05' W 081°04'0 0.0
2016-Dec-20 00:25N 32°05' W 081°04'0 0.0
2016-Dec-19 23:31N 32°05' W 081°04'0 0.0
2016-Dec-19 22:31N 32°05' W 081°04'0 0.0
2016-Dec-19 21:33N 32°05' W 081°04'4 3.9
2016-Dec-19 20:33N 32°06' W 080°60'8 8.1
2016-Dec-19 19:33N 32°02' W 080°51'1010.3
2016-Dec-19 18:33N 31°57' W 080°41'8 7.6
2016-Dec-19 17:27N 31°49' W 080°36'33716.0
2016-Dec-18 20:23N 26°19' W 079°24'  
2016-Dec-16 08:31N 29°55' W 090°04'1 0.1
2016-Dec-15 22:23N 29°55' W 090°05'0 0.0
2016-Dec-15 20:23N 29°55' W 090°05'0 0.0
2016-Dec-15 13:17N 29°55' W 090°05'0 0.0
2016-Dec-15 12:11N 29°55' W 090°05'0 0.0
2016-Dec-15 11:29N 29°55' W 090°05'0 0.0
2016-Dec-15 10:17N 29°55' W 090°05'0 0.0
2016-Dec-15 09:29N 29°55' W 090°05'0 0.0
2016-Dec-14 23:23N 29°55' W 090°05'0 0.0
2016-Dec-14 20:23N 29°55' W 090°05'0 0.0
2016-Dec-14 18:29N 29°55' W 090°05'0 0.0
2016-Dec-14 17:23N 29°55' W 090°05'0 0.0
2016-Dec-14 15:20N 29°55' W 090°05'0 0.0
2016-Dec-14 14:20N 29°55' W 090°05'0 0.0
2016-Dec-14 13:26N 29°55' W 090°05'0 0.0
2016-Dec-14 12:32N 29°55' W 090°05'0 0.0
2016-Dec-14 11:20N 29°55' W 090°05'0 0.0
2016-Dec-14 10:32N 29°55' W 090°05'0 0.0
2016-Dec-14 09:26N 29°55' W 090°05'0 0.0
2016-Dec-14 08:32N 29°55' W 090°05'0 0.0
2016-Dec-14 07:29N 29°55' W 090°05'0 0.0
2016-Dec-14 06:20N 29°55' W 090°05'0 0.0
2016-Dec-14 05:32N 29°55' W 090°05'0 0.0
2016-Dec-14 04:26N 29°55' W 090°05'0 0.0
2016-Dec-14 03:20N 29°55' W 090°05'0 0.0
2016-Dec-14 02:32N 29°55' W 090°05'0 0.0
2016-Dec-14 00:32N 29°55' W 090°05'0 0.0
2016-Dec-13 22:08N 29°55' W 090°05'0 0.0
2016-Dec-13 20:17N 29°55' W 090°05'0 0.0
2016-Dec-13 19:32N 29°55' W 090°05'0 0.0
2016-Dec-13 18:29N 29°55' W 090°05'0 0.0
2016-Dec-13 17:26N 29°55' W 090°05'  
Track history (hours):
 
Tides and Currents Weather Stations Pressure Air Temp Water Temp Dewpoint Dewpoint Depression Visibility Wind Speed Wind Dir Waves Ship Positions

Rickmers New Orleans

Last reported at 2016-Dec-23 17:17 UTC. Time now 2017-Mar-28 13:58 UTC.
Position N 39°59' W 075°05'.
Warning: this ship's position is months out of date.

Length 192.9 m; beam 27.8 m; draft 11.2 m.

Type: Cargo ship. MMSI: 538001922.

Date/timePositionNaut miles runAvg speedWind from/ knotsBaromVisibWave heightAir tempDewpointWater temp
2016-Dec-23 17:17N 39°59' W 075°05'0 0.0
2016-Dec-23 16:32N 39°59' W 075°05'0 0.0
2016-Dec-23 15:32N 39°59' W 075°05'0 0.0
2016-Dec-23 14:32N 39°59' W 075°05'0 0.0
2016-Dec-23 13:32N 39°59' W 075°05'0 0.0
2016-Dec-23 12:32N 39°59' W 075°05'0 0.0
2016-Dec-23 11:32N 39°59' W 075°05'0 0.0
2016-Dec-23 10:32N 39°59' W 075°05'2 1.9
2016-Dec-23 09:33N 39°58' W 075°07'7 6.7
2016-Dec-23 08:33N 39°52' W 075°12'9 8.9
2016-Dec-23 07:33N 39°49' W 075°23'10 9.5
2016-Dec-23 06:33N 39°42' W 075°31'10 9.9
2016-Dec-23 05:33N 39°32' W 075°33'1010.5
2016-Dec-23 04:33N 39°22' W 075°28'1212.2
2016-Dec-23 03:33N 39°13' W 075°18'1212.5
2016-Dec-23 02:33N 39°02' W 075°10'45911.7
2016-Dec-21 11:22N 32°13' W 079°26'1813.6
2016-Dec-21 10:03N 32°03' W 079°44'713.9
2016-Dec-21 09:34N 31°59' W 079°50'2612.4
2016-Dec-21 07:27N 31°55' W 080°21'1310.1
2016-Dec-21 06:11N 31°56' W 080°36'6 9.9
2016-Dec-21 05:34N 31°57' W 080°43'1010.1
2016-Dec-21 04:34N 32°02' W 080°53'8 8.2
2016-Dec-21 03:33N 32°05' W 081°02'2 1.6
2016-Dec-21 02:31N 32°05' W 081°04'0 0.0
2016-Dec-21 01:31N 32°05' W 081°04'0 0.0
2016-Dec-21 00:25N 32°05' W 081°04'0 0.0
2016-Dec-20 23:31N 32°05' W 081°04'0 0.0
2016-Dec-20 22:31N 32°05' W 081°04'0 0.0
2016-Dec-20 21:19N 32°05' W 081°04'0 0.0
2016-Dec-20 20:31N 32°05' W 081°04'0 0.0
2016-Dec-20 19:31N 32°05' W 081°04'0 0.0
2016-Dec-20 18:31N 32°05' W 081°04'0 0.0
2016-Dec-20 17:31N 32°05' W 081°04'0 0.0
2016-Dec-20 16:19N 32°05' W 081°04'0 0.0
2016-Dec-20 15:31N 32°05' W 081°04'0 0.0
2016-Dec-20 14:31N 32°05' W 081°04'0 0.0
2016-Dec-20 13:31N 32°05' W 081°04'0 0.0
2016-Dec-20 12:31N 32°05' W 081°04'0 0.0
2016-Dec-20 11:31N 32°05' W 081°04'0 0.0
2016-Dec-20 10:31N 32°05' W 081°04'0 0.0
2016-Dec-20 09:31N 32°05' W 081°04'0 0.0
2016-Dec-20 08:31N 32°05' W 081°04'0 0.0
2016-Dec-20 07:31N 32°05' W 081°04'0 0.0
2016-Dec-20 06:31N 32°05' W 081°04'0 0.0
2016-Dec-20 05:31N 32°05' W 081°04'0 0.0
2016-Dec-20 04:31N 32°05' W 081°04'0 0.0
2016-Dec-20 03:25N 32°05' W 081°04'0 0.0
2016-Dec-20 02:31N 32°05' W 081°04'0 0.0
2016-Dec-20 01:31N 32°05' W 081°04'0 0.0
2016-Dec-20 00:25N 32°05' W 081°04'0 0.0
2016-Dec-19 23:31N 32°05' W 081°04'0 0.0
2016-Dec-19 22:31N 32°05' W 081°04'0 0.0
2016-Dec-19 21:33N 32°05' W 081°04'4 3.9
2016-Dec-19 20:33N 32°06' W 080°60'8 8.1
2016-Dec-19 19:33N 32°02' W 080°51'1010.3
2016-Dec-19 18:33N 31°57' W 080°41'8 7.6
2016-Dec-19 17:27N 31°49' W 080°36'33716.0
2016-Dec-18 20:23N 26°19' W 079°24'  
2016-Dec-16 08:31N 29°55' W 090°04'1 0.1
2016-Dec-15 22:23N 29°55' W 090°05'0 0.0
2016-Dec-15 20:23N 29°55' W 090°05'0 0.0
2016-Dec-15 13:17N 29°55' W 090°05'0 0.0
2016-Dec-15 12:11N 29°55' W 090°05'0 0.0
2016-Dec-15 11:29N 29°55' W 090°05'0 0.0
2016-Dec-15 10:17N 29°55' W 090°05'0 0.0
2016-Dec-15 09:29N 29°55' W 090°05'0 0.0
2016-Dec-14 23:23N 29°55' W 090°05'0 0.0
2016-Dec-14 20:23N 29°55' W 090°05'0 0.0
2016-Dec-14 18:29N 29°55' W 090°05'0 0.0
2016-Dec-14 17:23N 29°55' W 090°05'0 0.0
2016-Dec-14 15:20N 29°55' W 090°05'0 0.0
2016-Dec-14 14:20N 29°55' W 090°05'0 0.0
2016-Dec-14 13:26N 29°55' W 090°05'0 0.0
2016-Dec-14 12:32N 29°55' W 090°05'0 0.0
2016-Dec-14 11:20N 29°55' W 090°05'0 0.0
2016-Dec-14 10:32N 29°55' W 090°05'0 0.0
2016-Dec-14 09:26N 29°55' W 090°05'0 0.0
2016-Dec-14 08:32N 29°55' W 090°05'0 0.0
2016-Dec-14 07:29N 29°55' W 090°05'0 0.0
2016-Dec-14 06:20N 29°55' W 090°05'0 0.0
2016-Dec-14 05:32N 29°55' W 090°05'0 0.0
2016-Dec-14 04:26N 29°55' W 090°05'0 0.0
2016-Dec-14 03:20N 29°55' W 090°05'0 0.0
2016-Dec-14 02:32N 29°55' W 090°05'0 0.0
2016-Dec-14 00:32N 29°55' W 090°05'0 0.0
2016-Dec-13 22:08N 29°55' W 090°05'0 0.0
2016-Dec-13 20:17N 29°55' W 090°05'0 0.0
2016-Dec-13 19:32N 29°55' W 090°05'0 0.0
2016-Dec-13 18:29N 29°55' W 090°05'0 0.0
2016-Dec-13 17:26N 29°55' W 090°05'  

Dump ship's entire track history